Overview Statistics Trail Chart Weather Telemetry Raw packets
 

This is the latest recevied weather packets stored in our database for station/object KC9DRE. If no packets are shown the sender has not sent any weather packets the latest 10 day(s).

<< 56 57 58 59 60 61 62 >>
Time Temp. Humidity Pressure Rain* Wind** Luminosity Snow
1777556635 11.11° C 64% 1018.1 hPa 0 mm - 439 W/m² -
1777556330 11.67° C 66% 1018 hPa 0 mm - 419 W/m² -
1777556027 11.67° C 69% 1018 hPa 0 mm - 404 W/m² -
1777555721 11.11° C 69% 1017.9 hPa 0 mm - 395 W/m² -
1777555418 11.11° C 71% 1017.9 hPa 0 mm - 370 W/m² -
1777555115 10.56° C 73% 1017.9 hPa 0 mm - 351 W/m² -
1777554812 10.56° C 71% 1017.9 hPa 0 mm - 335 W/m² -
1777554509 10.56° C 74% 1017.7 hPa 0 mm - 313 W/m² -
1777554206 10° C 72% 1017.7 hPa 0 mm - 283 W/m² -
1777553903 10.56° C 70% 1017.9 hPa 0 mm - 234 W/m² -
1777553599 10° C 75% 1017.6 hPa 0 mm - 200 W/m² -
1777553295 9.44° C 76% 1017.8 hPa 0 mm - 180 W/m² -
1777552991 9.44° C 77% 1017.5 hPa 0 mm - 157 W/m² -
1777552691 8.89° C 78% 1017.7 hPa 0 mm - 137 W/m² -
1777552394 8.89° C 77% 1017.5 hPa 0 mm - 122 W/m² -
1777552084 8.89° C 82% 1017.7 hPa 0 mm - 108 W/m² -
1777551782 8.33° C 87% 1017.9 hPa 0 mm - 98 W/m² -
1777551479 7.78° C 91% 1017.7 hPa 0 mm - 89 W/m² -
1777551175 7.22° C 97% 1017.5 hPa 0 mm - 80 W/m² -
1777550873 6.67° C 98% 1017.4 hPa 0 mm - 73 W/m² -
1777550569 6.11° C 98% 1017.4 hPa 0 mm - 67 W/m² -
1777550265 5.56° C 98% 1017.4 hPa 0 mm - 62 W/m² -
1777549962 4.44° C 98% 1017.5 hPa 0 mm - 56 W/m² -
1777549658 3.33° C 98% 1017.2 hPa 0 mm - 51 W/m² -
1777549353 2.78° C 97% 1017 hPa 0 mm - 31 W/m² -

* Rain latest hour (hover to see other rain measurements)
** Current wind speed in m/s (hover to see current wind gust speed)